Weather at Gülseren Barracks Central Helipad

Public forecast

Using degrees Celsius for public forecast. Weather courtesy of forecast.io.

Closest aviation weather report (METAR) to Gülseren Barracks Central Helipad

Closest report is Nicosia (Lefkoşa) Ercan International Airport, 20.7 nm (38.3 km) W.

2023/02/05 16:50 (retrieved 38 minutes ago)

LCEN 051650Z 21003KT 8000 -SHRA FEW020CB SCT025 BKN070 10/08 Q1004 NOSIG RMK RWY11 20004KT

Closest aviation forecast (TAF) to Gülseren Barracks Central Helipad

Closest forecast is Nicosia (Lefkoşa) Ercan International Airport, 20.7 nm (38.3 km) W.

2023/02/05 12:03 (retrieved 5 hours ago)

TAF LCEN 051040Z 0512/0612 10010KT 9999 BKN030 BKN100 PROB40 TEMPO 0512/0515 5000 RA BECMG 0609/0612 28017KT